Time;durP1;ratioP1;P1;durP2;ratioP2;P2;SDS_P1;SDS_P2;PMS_P1;PMS_P2;Temp;Humidity;BMP_temperature;BMP_pressure;BME280_temperature;BME280_humidity;BME280_pressure;Samples;Min_cycle;Max_cycle;Signal;HPM_P1;HPM_P2
2023/08/20 00:01:56;;;;;;;22.55;20.27;;;19.40;99.90;;;;;;5073811;28;20067;-66
2023/08/20 00:04:25;;;;;;;22.50;20.23;;;19.30;99.90;;;;;;5074111;28;20032;-66
2023/08/20 00:06:51;;;;;;;23.55;21.00;;;19.30;99.90;;;;;;5074213;28;20090;-66
2023/08/20 00:09:16;;;;;;;22.42;20.13;;;19.30;99.90;;;;;;5074094;28;20036;-65
2023/08/20 00:11:42;;;;;;;23.45;21.15;;;19.30;99.90;;;;;;5073978;28;20112;-67
2023/08/20 00:14:08;;;;;;;22.90;20.30;;;19.30;99.90;;;;;;5073749;28;20021;-66
2023/08/20 00:16:34;;;;;;;37.80;24.80;;;19.20;99.90;;;;;;5073698;28;20028;-66
2023/08/20 00:19:00;;;;;;;26.17;21.60;;;19.20;99.90;;;;;;5073615;28;20082;-66
2023/08/20 00:21:28;;;;;;;25.38;21.42;;;19.20;99.90;;;;;;5073697;28;20029;-66
2023/08/20 00:23:54;;;;;;;23.80;21.13;;;19.10;99.90;;;;;;5073406;28;20028;-66
2023/08/20 00:26:19;;;;;;;23.40;20.88;;;19.10;99.90;;;;;;5073886;28;20036;-66
2023/08/20 00:28:45;;;;;;;23.52;20.42;;;19.10;99.90;;;;;;5073760;28;20036;-66
2023/08/20 00:31:10;;;;;;;24.70;22.05;;;19.10;99.90;;;;;;5073288;28;20035;-66
2023/08/20 00:33:36;;;;;;;26.58;22.27;;;19.10;99.90;;;;;;5073566;28;20056;-66
2023/08/20 00:36:02;;;;;;;23.70;21.20;;;19.00;99.90;;;;;;5073481;28;20454;-66
2023/08/20 00:38:28;;;;;;;23.52;21.13;;;19.00;99.90;;;;;;5073426;28;20024;-66
2023/08/20 00:40:53;;;;;;;24.80;22.30;;;19.00;99.90;;;;;;5073110;28;20381;-66
2023/08/20 00:43:19;;;;;;;24.55;21.58;;;19.00;99.90;;;;;;5072035;28;20036;-65
2023/08/20 00:45:45;;;;;;;23.98;21.58;;;18.90;99.90;;;;;;5073569;28;20462;-66
2023/08/20 00:48:11;;;;;;;23.88;21.48;;;18.90;99.90;;;;;;5071981;28;20477;-66
2023/08/20 00:50:38;;;;;;;24.55;21.90;;;18.90;99.90;;;;;;5073239;28;20108;-65
2023/08/20 00:53:04;;;;;;;23.75;21.25;;;18.90;99.90;;;;;;5073277;28;20036;-66
2023/08/20 00:55:29;;;;;;;22.77;20.38;;;18.90;99.90;;;;;;5073225;28;20449;-66
2023/08/20 00:57:55;;;;;;;26.75;21.65;;;18.90;99.90;;;;;;5073161;28;20490;-66
2023/08/20 01:00:23;;;;;;;30.63;22.48;;;18.90;99.90;;;;;;5075962;28;20036;-66
2023/08/20 01:02:49;;;;;;;24.88;22.23;;;18.90;99.90;;;;;;5076787;28;20039;-66
2023/08/20 01:05:16;;;;;;;24.50;21.90;;;18.90;99.90;;;;;;5077520;28;20099;-65
2023/08/20 01:07:55;;;;;;;27.48;22.60;;;18.90;99.90;;;;;;5077104;28;20086;-65
2023/08/20 01:10:43;;;;;;;24.42;20.58;;;18.80;99.90;;;;;;5076368;28;20426;-65
2023/08/20 01:13:09;;;;;;;23.63;21.23;;;18.80;99.90;;;;;;5076083;28;20531;-66
2023/08/20 01:15:35;;;;;;;26.55;22.15;;;18.80;99.90;;;;;;5077523;28;20025;-66
2023/08/20 01:18:00;;;;;;;23.83;21.42;;;18.80;99.90;;;;;;5077874;28;20086;-66
2023/08/20 01:20:32;;;;;;;23.35;20.88;;;18.90;99.90;;;;;;5077886;28;20484;-66
2023/08/20 01:23:15;;;;;;;24.08;21.58;;;18.90;99.90;;;;;;5076761;28;20469;-65
2023/08/20 01:25:59;;;;;;;25.35;22.00;;;18.90;99.90;;;;;;5076922;28;20056;-65
2023/08/20 01:28:30;;;;;;;24.88;21.67;;;18.90;99.90;;;;;;5076522;28;20334;-65
2023/08/20 01:31:03;;;;;;;23.45;20.90;;;18.90;99.90;;;;;;5075499;28;20032;-65
2023/08/20 01:33:29;;;;;;;24.10;21.65;;;18.90;99.90;;;;;;5076993;28;20040;-66
2023/08/20 01:35:55;;;;;;;24.00;21.27;;;18.90;99.90;;;;;;5076715;28;20044;-65
2023/08/20 01:38:21;;;;;;;23.13;20.63;;;18.90;99.90;;;;;;5076225;28;20430;-65
2023/08/20 01:40:47;;;;;;;24.73;21.85;;;19.00;99.90;;;;;;5076513;28;20020;-65
2023/08/20 01:43:13;;;;;;;25.88;22.27;;;18.90;99.90;;;;;;5076168;28;20440;-65
2023/08/20 01:45:39;;;;;;;29.20;22.50;;;18.90;99.90;;;;;;5075181;28;20024;-66
2023/08/20 01:48:05;;;;;;;23.58;21.17;;;18.90;99.90;;;;;;5076255;28;20025;-65
2023/08/20 01:50:31;;;;;;;24.45;21.80;;;18.90;99.90;;;;;;5076445;28;20025;-65
2023/08/20 01:52:56;;;;;;;25.13;22.58;;;18.80;99.90;;;;;;5075904;28;20036;-66
2023/08/20 01:55:22;;;;;;;24.15;21.42;;;18.80;99.90;;;;;;5076460;28;20420;-66
2023/08/20 01:57:48;;;;;;;25.08;22.35;;;18.80;99.90;;;;;;5075648;28;20020;-66
2023/08/20 02:00:14;;;;;;;24.50;21.90;;;18.70;99.90;;;;;;5076163;28;20111;-65
2023/08/20 02:02:39;;;;;;;25.27;22.67;;;18.70;99.90;;;;;;5076049;28;20075;-65
2023/08/20 02:05:05;;;;;;;29.88;21.52;;;18.70;99.90;;;;;;5075787;28;20386;-65
2023/08/20 02:07:31;;;;;;;24.58;21.90;;;18.70;99.90;;;;;;5076146;28;20039;-65
2023/08/20 02:09:56;;;;;;;25.30;22.45;;;18.60;99.90;;;;;;5075695;28;20086;-65
2023/08/20 02:12:22;;;;;;;26.23;21.85;;;18.60;99.90;;;;;;5075197;28;20033;-66
2023/08/20 02:14:47;;;;;;;25.75;22.60;;;18.60;99.90;;;;;;5075860;28;20067;-65
2023/08/20 02:17:14;;;;;;;24.02;21.42;;;18.60;99.90;;;;;;5075769;28;20020;-65
2023/08/20 02:19:39;;;;;;;25.50;22.80;;;18.60;99.90;;;;;;5075831;28;20028;-66
2023/08/20 02:22:05;;;;;;;25.98;23.20;;;18.50;99.90;;;;;;5075739;28;20025;-65
2023/08/20 02:24:30;;;;;;;26.55;22.20;;;18.50;99.90;;;;;;5075727;28;20028;-65
2023/08/20 02:26:56;;;;;;;25.77;23.08;;;18.50;99.90;;;;;;5075760;28;20021;-65
2023/08/20 02:29:22;;;;;;;28.33;22.85;;;18.40;99.90;;;;;;5074271;28;20059;-66
2023/08/20 02:31:48;;;;;;;28.75;24.20;;;18.40;99.90;;;;;;5075426;28;20064;-66
2023/08/20 02:34:14;;;;;;;25.30;22.58;;;18.40;99.90;;;;;;5075409;28;20442;-66
2023/08/20 02:36:39;;;;;;;26.92;23.92;;;18.30;99.90;;;;;;5075438;28;20535;-66
2023/08/20 02:39:07;;;;;;;33.63;24.20;;;18.10;99.90;;;;;;5075422;28;20032;-66
2023/08/20 02:41:34;;;;;;;30.33;24.48;;;18.30;99.90;;;;;;5074940;28;20032;-65
2023/08/20 02:44:00;;;;;;;30.00;24.50;;;18.30;99.90;;;;;;5075616;28;20032;-65
2023/08/20 02:46:25;;;;;;;31.00;24.52;;;18.30;99.90;;;;;;5075643;28;20089;-66
2023/08/20 02:48:51;;;;;;;27.10;24.20;;;18.30;99.90;;;;;;5073822;28;20450;-65
2023/08/20 02:51:17;;;;;;;30.33;24.30;;;18.30;99.90;;;;;;5075159;28;20024;-65
2023/08/20 02:53:43;;;;;;;28.27;25.23;;;18.30;99.90;;;;;;5074788;28;20134;-66
2023/08/20 02:56:09;;;;;;;27.88;24.13;;;18.30;99.90;;;;;;5075134;28;20029;-65
2023/08/20 02:58:34;;;;;;;32.35;24.30;;;18.30;99.90;;;;;;5074885;28;20108;-66
2023/08/20 03:01:00;;;;;;;25.85;23.05;;;18.30;99.90;;;;;;5073747;28;20037;-65
2023/08/20 03:03:26;;;;;;;27.77;24.85;;;18.30;99.90;;;;;;5074681;28;20064;-65
2023/08/20 03:05:51;;;;;;;28.10;24.80;;;18.30;99.90;;;;;;5075160;28;20036;-65
2023/08/20 03:08:17;;;;;;;27.52;24.55;;;18.30;99.90;;;;;;5073453;28;20052;-65
2023/08/20 03:10:42;;;;;;;27.52;24.40;;;18.30;99.90;;;;;;5074065;28;20035;-65
2023/08/20 03:13:08;;;;;;;34.63;26.27;;;18.30;99.90;;;;;;5074635;28;20038;-66
2023/08/20 03:15:34;;;;;;;27.90;24.15;;;18.30;99.90;;;;;;5074638;28;20077;-66
2023/08/20 03:17:59;;;;;;;26.45;23.75;;;18.20;99.90;;;;;;5074706;28;20035;-66
2023/08/20 03:20:25;;;;;;;27.13;24.23;;;18.20;99.90;;;;;;5074674;28;20374;-65
2023/08/20 03:22:51;;;;;;;27.60;24.15;;;18.20;99.90;;;;;;5073536;28;20042;-65
2023/08/20 03:25:17;;;;;;;30.83;24.58;;;18.20;99.90;;;;;;5074304;28;20095;-65
2023/08/20 03:27:42;;;;;;;27.52;24.33;;;18.10;99.90;;;;;;5074297;28;20147;-66
2023/08/20 03:30:08;;;;;;;30.02;23.90;;;18.10;99.90;;;;;;5074207;28;20064;-65
2023/08/20 03:32:34;;;;;;;28.40;24.75;;;18.10;99.90;;;;;;5074254;28;20037;-66
2023/08/20 03:35:00;;;;;;;30.00;25.98;;;18.00;99.90;;;;;;5074144;28;20025;-65
2023/08/20 03:37:28;;;;;;;28.83;25.83;;;18.00;99.90;;;;;;5074085;28;20497;-66
2023/08/20 03:39:54;;;;;;;31.48;25.88;;;18.00;99.90;;;;;;5073994;28;20471;-66
2023/08/20 03:42:19;;;;;;;28.20;24.88;;;18.10;99.90;;;;;;5074214;28;20107;-65
2023/08/20 03:44:45;;;;;;;31.08;25.20;;;18.10;99.90;;;;;;5074253;28;20048;-65
2023/08/20 03:47:11;;;;;;;30.52;24.77;;;18.10;99.90;;;;;;5073848;28;20068;-65
2023/08/20 03:49:37;;;;;;;29.80;24.75;;;18.00;99.90;;;;;;5072755;28;20028;-64
2023/08/20 03:52:03;;;;;;;30.98;25.42;;;18.00;99.90;;;;;;5072638;28;20039;-63
2023/08/20 03:54:29;;;;;;;28.60;24.30;;;18.00;99.90;;;;;;5073583;28;20111;-63
2023/08/20 03:56:55;;;;;;;28.05;25.05;;;18.00;99.90;;;;;;5073600;28;20100;-63
2023/08/20 03:59:21;;;;;;;30.20;24.38;;;18.00;99.90;;;;;;5074130;28;20032;-64
2023/08/20 04:01:47;;;;;;;27.60;24.40;;;18.10;99.90;;;;;;5074051;28;20077;-64
2023/08/20 04:04:13;;;;;;;27.05;24.13;;;18.10;99.90;;;;;;5074195;28;20024;-64
2023/08/20 04:06:39;;;;;;;27.15;24.35;;;18.00;99.90;;;;;;5073589;28;20082;-63
2023/08/20 04:09:06;;;;;;;27.73;24.80;;;18.00;99.90;;;;;;5073574;28;20033;-64
2023/08/20 04:11:31;;;;;;;27.73;24.15;;;18.00;99.90;;;;;;5073888;28;20454;-64
2023/08/20 04:13:57;;;;;;;27.55;24.63;;;18.00;99.90;;;;;;5073247;28;20039;-64
2023/08/20 04:16:23;;;;;;;28.08;24.90;;;18.00;99.90;;;;;;5072334;28;20123;-64
2023/08/20 04:18:49;;;;;;;28.65;24.48;;;18.00;99.90;;;;;;5073781;28;20021;-64
2023/08/20 04:21:15;;;;;;;27.13;24.33;;;18.00;99.90;;;;;;5074284;28;20423;-64
2023/08/20 04:23:41;;;;;;;26.50;23.65;;;18.00;99.90;;;;;;5075085;28;20036;-64
2023/08/20 04:26:07;;;;;;;25.70;22.90;;;18.10;99.90;;;;;;5075315;28;20066;-64
2023/08/20 04:28:33;;;;;;;28.08;23.30;;;18.10;99.90;;;;;;5073022;28;20068;-64
2023/08/20 04:31:00;;;;;;;26.77;23.88;;;18.20;99.90;;;;;;5072373;28;20053;-64
2023/08/20 04:33:26;;;;;;;25.15;22.45;;;18.20;99.90;;;;;;5071686;28;20037;-64
2023/08/20 04:35:51;;;;;;;25.77;23.00;;;18.20;99.90;;;;;;5073291;28;20201;-64
2023/08/20 04:38:17;;;;;;;25.45;22.83;;;18.30;99.90;;;;;;5073457;28;20089;-64
2023/08/20 04:40:46;;;;;;;25.05;22.55;;;18.30;99.90;;;;;;5074616;28;20032;-65
2023/08/20 04:43:12;;;;;;;23.98;21.35;;;18.40;99.90;;;;;;5078794;28;20544;-65
2023/08/20 04:45:37;;;;;;;26.80;22.17;;;18.40;99.90;;;;;;5078697;28;20173;-66
2023/08/20 04:48:03;;;;;;;25.88;22.33;;;18.40;99.90;;;;;;5077108;28;20111;-64
2023/08/20 04:50:29;;;;;;;26.08;21.80;;;18.40;99.90;;;;;;5076766;28;20025;-64
2023/08/20 04:52:54;;;;;;;25.10;21.63;;;18.50;99.90;;;;;;5076106;28;20032;-64
2023/08/20 04:55:20;;;;;;;29.98;22.30;;;18.50;99.90;;;;;;5073789;28;20386;-64
2023/08/20 04:57:46;;;;;;;24.17;21.67;;;18.60;99.90;;;;;;5072912;28;20082;-64
2023/08/20 05:00:11;;;;;;;23.00;20.73;;;18.60;99.90;;;;;;5072986;28;20028;-64
2023/08/20 05:02:37;;;;;;;23.17;20.70;;;18.70;99.90;;;;;;5073400;28;20028;-64
2023/08/20 05:05:03;;;;;;;22.10;19.50;;;18.80;99.90;;;;;;5071948;28;20462;-64
2023/08/20 05:07:29;;;;;;;21.83;19.65;;;18.80;99.90;;;;;;5073344;28;20031;-64
2023/08/20 05:09:55;;;;;;;21.48;18.92;;;18.90;99.90;;;;;;5073386;28;20385;-64
2023/08/20 05:12:20;;;;;;;21.10;19.02;;;18.90;99.90;;;;;;5073608;28;20040;-64
2023/08/20 05:14:46;;;;;;;20.58;18.38;;;19.00;99.90;;;;;;5074045;28;20452;-64
2023/08/20 05:17:11;;;;;;;22.35;18.80;;;19.00;99.90;;;;;;5072691;28;20540;-64
2023/08/20 05:19:37;;;;;;;20.70;18.17;;;19.20;99.90;;;;;;5073703;28;20032;-63
2023/08/20 05:22:03;;;;;;;20.90;18.70;;;19.20;99.90;;;;;;5073113;28;20082;-64
2023/08/20 05:24:28;;;;;;;23.10;18.45;;;19.30;99.90;;;;;;5073088;28;20458;-64
2023/08/20 05:27:08;;;;;;;19.98;17.92;;;19.40;99.90;;;;;;5072999;28;20099;-64
2023/08/20 05:29:34;;;;;;;20.55;18.38;;;19.50;99.90;;;;;;5073001;28;20024;-64
2023/08/20 05:31:59;;;;;;;20.67;17.90;;;19.60;99.90;;;;;;5072773;28;20090;-64
2023/08/20 05:34:25;;;;;;;18.98;17.00;;;19.60;99.90;;;;;;5072839;28;20025;-64
2023/08/20 05:36:51;;;;;;;22.10;17.73;;;19.70;99.90;;;;;;5072751;28;20445;-64
2023/08/20 05:39:16;;;;;;;18.88;16.88;;;19.80;99.90;;;;;;5073106;28;20029;-65
2023/08/20 05:41:42;;;;;;;19.33;17.35;;;19.90;99.90;;;;;;5073650;28;20036;-64
2023/08/20 05:44:08;;;;;;;18.10;16.13;;;20.00;99.90;;;;;;5071459;28;20024;-64
2023/08/20 05:46:33;;;;;;;19.50;16.85;;;20.00;99.90;;;;;;5074293;28;20077;-64
2023/08/20 05:48:59;;;;;;;17.23;15.50;;;20.20;99.90;;;;;;5076147;28;20040;-64
2023/08/20 05:51:25;;;;;;;18.08;16.20;;;20.20;99.90;;;;;;5075993;28;20089;-65
2023/08/20 05:53:50;;;;;;;18.70;16.90;;;20.30;99.90;;;;;;5076271;28;20086;-64
2023/08/20 05:56:16;;;;;;;17.52;15.88;;;20.40;99.90;;;;;;5076389;28;20052;-64
2023/08/20 05:58:41;;;;;;;17.50;15.70;;;20.50;99.90;;;;;;5076159;28;20137;-64
2023/08/20 06:01:07;;;;;;;17.83;16.02;;;20.60;99.90;;;;;;5076100;28;20051;-64
2023/08/20 06:03:32;;;;;;;17.85;15.95;;;20.80;99.90;;;;;;5075976;28;20032;-64
2023/08/20 06:05:58;;;;;;;17.17;15.48;;;20.90;99.90;;;;;;5075969;28;20025;-66
2023/08/20 06:08:24;;;;;;;16.45;14.73;;;21.20;99.90;;;;;;5075850;28;20021;-64
2023/08/20 06:10:50;;;;;;;16.00;14.45;;;21.50;99.90;;;;;;5074965;28;20031;-62
2023/08/20 06:13:16;;;;;;;16.05;14.55;;;21.90;99.90;;;;;;5075685;28;20024;-63
2023/08/20 06:15:42;;;;;;;15.25;13.73;;;22.30;99.90;;;;;;5075970;28;20032;-62
2023/08/20 06:18:07;;;;;;;14.82;13.43;;;22.70;99.90;;;;;;5075524;28;20055;-58
2023/08/20 06:20:33;;;;;;;13.80;12.50;;;23.10;99.90;;;;;;5075439;28;20120;-57
2023/08/20 06:22:59;;;;;;;13.88;12.57;;;23.50;99.90;;;;;;5075131;28;20107;-58
2023/08/20 06:25:24;;;;;;;13.90;12.55;;;23.90;99.90;;;;;;5075350;28;20036;-58
2023/08/20 06:27:50;;;;;;;12.82;11.50;;;24.30;99.90;;;;;;5075042;28;20063;-57
2023/08/20 06:30:15;;;;;;;12.70;11.48;;;24.50;99.90;;;;;;5075445;28;20405;-57
2023/08/20 06:32:43;;;;;;;14.85;11.55;;;24.90;99.90;;;;;;5074957;28;20039;-57
2023/08/20 06:35:09;;;;;;;14.38;11.13;;;25.40;99.90;;;;;;5074265;28;20052;-57
2023/08/20 06:37:35;;;;;;;12.15;10.95;;;25.70;99.90;;;;;;5075478;28;20470;-59
2023/08/20 06:40:01;;;;;;;12.27;11.13;;;26.00;99.90;;;;;;5075387;28;20054;-59
2023/08/20 06:42:26;;;;;;;12.43;10.82;;;26.30;99.90;;;;;;5075217;28;20032;-57
2023/08/20 06:44:52;;;;;;;11.70;10.15;;;26.70;99.90;;;;;;5075166;28;20028;-57
2023/08/20 06:47:18;;;;;;;12.63;10.18;;;27.10;99.90;;;;;;5075069;28;20107;-56
2023/08/20 06:49:43;;;;;;;10.32;9.32;;;27.40;99.90;;;;;;5091153;23;20052;-56
2023/08/20 06:52:09;;;;;;;12.38;10.18;;;27.60;99.90;;;;;;5095391;28;20020;-57
2023/08/20 06:54:35;;;;;;;11.07;9.35;;;27.80;99.90;;;;;;5077353;28;20064;-78
2023/08/20 06:57:01;;;;;;;12.55;10.35;;;27.90;99.90;;;;;;5095100;28;20024;-72
2023/08/20 06:59:27;;;;;;;10.70;9.15;;;28.10;99.90;;;;;;5077248;28;20059;-68
2023/08/20 07:01:52;;;;;;;10.48;9.57;;;28.20;99.90;;;;;;5094930;28;20051;-70
2023/08/20 07:04:18;;;;;;;10.35;9.30;;;28.30;99.90;;;;;;5095670;28;20112;-70
2023/08/20 07:06:44;;;;;;;10.27;9.05;;;28.60;99.90;;;;;;5095561;28;20028;-70
2023/08/20 07:09:09;;;;;;;14.70;8.85;;;28.90;99.90;;;;;;5095073;28;20032;-70
2023/08/20 07:11:35;;;;;;;10.38;9.32;;;29.20;99.90;;;;;;5077721;28;20032;-70
2023/08/20 07:14:00;;;;;;;9.15;8.27;;;29.50;99.90;;;;;;5076868;28;20028;-70
2023/08/20 07:16:26;;;;;;;11.05;10.05;;;29.70;99.90;;;;;;5094982;28;20050;-70
2023/08/20 07:18:52;;;;;;;9.82;8.90;;;29.80;99.80;;;;;;5076949;28;20086;-70
2023/08/20 07:21:18;;;;;;;10.95;9.63;;;29.50;99.90;;;;;;5095137;28;20020;-69
2023/08/20 07:23:44;;;;;;;10.18;9.18;;;29.40;99.90;;;;;;5076865;28;20491;-70
2023/08/20 07:26:15;;;;;;;10.27;9.15;;;29.80;99.70;;;;;;5096068;28;20099;-70
2023/08/20 07:28:56;;;;;;;8.65;7.85;;;30.50;99.10;;;;;;5096006;28;20081;-70
2023/08/20 07:31:23;;;;;;;9.68;8.82;;;31.00;97.50;;;;;;5078513;28;20051;-72
2023/08/20 07:33:49;;;;;;;8.40;7.65;;;31.30;96.80;;;;;;5095473;28;20480;-71
2023/08/20 07:36:15;;;;;;;8.63;7.82;;;31.50;95.60;;;;;;5076498;28;20032;-71
2023/08/20 07:38:42;;;;;;;8.45;7.60;;;31.70;95.20;;;;;;5076789;28;20024;-71
2023/08/20 07:41:08;;;;;;;11.10;7.60;;;31.70;94.00;;;;;;5076758;28;20032;-71
2023/08/20 07:43:34;;;;;;;9.48;7.80;;;31.90;93.40;;;;;;5094578;28;20050;-71
2023/08/20 07:46:00;;;;;;;8.07;7.47;;;32.00;92.80;;;;;;5077225;28;20029;-71
2023/08/20 07:48:25;;;;;;;7.85;7.20;;;32.20;93.30;;;;;;5094868;28;20031;-71
2023/08/20 07:50:51;;;;;;;7.30;6.57;;;32.60;93.30;;;;;;5076469;28;20048;-71
2023/08/20 07:53:17;;;;;;;7.13;6.50;;;32.60;90.80;;;;;;5093116;28;20031;-71
2023/08/20 07:55:42;;;;;;;7.43;6.82;;;32.60;90.60;;;;;;5076365;28;20039;-71
2023/08/20 07:58:08;;;;;;;7.93;6.90;;;32.70;90.50;;;;;;5076141;28;20034;-71
2023/08/20 08:00:34;;;;;;;7.75;7.25;;;33.00;90.10;;;;;;5094403;28;20035;-71
2023/08/20 08:02:59;;;;;;;7.97;7.28;;;33.10;87.90;;;;;;5076528;28;20361;-73
2023/08/20 08:05:25;;;;;;;8.00;7.30;;;33.40;87.00;;;;;;5076501;28;20385;-73
2023/08/20 08:07:51;;;;;;;7.57;6.88;;;33.80;86.10;;;;;;5095017;28;20369;-72
2023/08/20 08:10:16;;;;;;;7.80;7.10;;;33.90;85.40;;;;;;5093626;28;20027;-71
2023/08/20 08:12:42;;;;;;;6.45;5.85;;;33.90;86.20;;;;;;5094465;28;20035;-71
2023/08/20 08:15:07;;;;;;;7.57;6.85;;;34.00;83.20;;;;;;5094285;28;20028;-71
2023/08/20 08:17:33;;;;;;;7.95;6.60;;;34.30;83.90;;;;;;5075846;28;20027;-72
2023/08/20 08:19:59;;;;;;;7.47;6.57;;;34.30;83.00;;;;;;5094067;28;20028;-71
2023/08/20 08:22:24;;;;;;;6.88;6.22;;;34.30;83.60;;;;;;5094043;28;20090;-72
2023/08/20 08:24:50;;;;;;;7.47;6.75;;;34.20;80.60;;;;;;5075848;28;20028;-74
2023/08/20 08:27:15;;;;;;;7.13;6.60;;;34.40;80.70;;;;;;5094004;28;20028;-77
2023/08/20 08:29:41;;;;;;;7.00;6.40;;;34.60;79.90;;;;;;5094096;28;20461;-74
2023/08/20 08:32:07;;;;;;;7.32;6.75;;;34.80;78.60;;;;;;5093966;28;20070;-75
2023/08/20 08:34:32;;;;;;;8.23;6.85;;;34.90;76.60;;;;;;5075884;28;20453;-74
2023/08/20 08:36:58;;;;;;;7.82;7.00;;;34.90;77.00;;;;;;5094079;28;20028;-74
2023/08/20 08:39:23;;;;;;;8.70;7.22;;;35.30;75.60;;;;;;5093972;28;20405;-76
2023/08/20 08:42:00;;;;;;;9.45;6.63;;;35.30;74.00;;;;;;5092620;28;20069;-76
2023/08/20 08:44:27;;;;;;;7.00;6.32;;;35.40;73.60;;;;;;5093632;28;20480;-76
2023/08/20 08:46:53;;;;;;;6.90;6.13;;;35.70;71.50;;;;;;5075900;28;20144;-74
2023/08/20 08:49:19;;;;;;;6.82;6.22;;;35.60;71.80;;;;;;5089018;28;20116;-74
2023/08/20 08:51:46;;;;;;;7.50;6.90;;;35.50;71.30;;;;;;5073935;28;20028;-75
2023/08/20 08:54:15;;;;;;;6.55;5.95;;;35.50;69.80;;;;;;5072475;28;20107;-74
2023/08/20 08:56:40;;;;;;;6.80;6.28;;;35.30;70.70;;;;;;5073326;28;20036;-74
2023/08/20 08:59:06;;;;;;;8.85;7.00;;;35.20;71.20;;;;;;5072403;28;20024;-74
2023/08/20 09:01:32;;;;;;;11.85;7.00;;;35.50;71.00;;;;;;5073691;28;20462;-75
2023/08/20 09:03:57;;;;;;;7.65;6.75;;;35.90;69.90;;;;;;5073358;28;20082;-76
2023/08/20 09:06:23;;;;;;;9.75;7.00;;;36.10;68.30;;;;;;5073210;28;20462;-73
2023/08/20 09:08:48;;;;;;;9.57;6.30;;;36.30;68.50;;;;;;5073434;28;20028;-72
2023/08/20 09:11:15;;;;;;;6.30;5.80;;;36.50;66.80;;;;;;5073332;28;20033;-68
2023/08/20 09:13:42;;;;;;;7.03;6.43;;;36.90;69.90;;;;;;5071925;28;20031;-68
2023/08/20 09:16:11;;;;;;;6.60;6.00;;;35.80;69.60;;;;;;5073355;28;20033;-69
2023/08/20 09:18:41;;;;;;;6.70;6.20;;;36.80;67.50;;;;;;5072283;28;20466;-69
2023/08/20 09:21:08;;;;;;;6.60;6.00;;;38.00;63.50;;;;;;5073845;28;20488;-68
2023/08/20 09:23:34;;;;;;;6.30;5.70;;;38.80;60.80;;;;;;5076961;28;20473;-69
2023/08/20 09:26:03;;;;;;;5.85;5.38;;;39.40;59.10;;;;;;5077122;28;20120;-69
2023/08/20 09:28:28;;;;;;;6.25;5.75;;;39.80;57.10;;;;;;5076964;28;20028;-69
2023/08/20 09:31:03;;;;;;;6.80;6.20;;;39.90;56.60;;;;;;5076534;28;20047;-69
2023/08/20 09:33:29;;;;;;;5.75;5.32;;;40.00;55.70;;;;;;5075946;28;20083;-69
2023/08/20 09:35:55;;;;;;;5.82;5.40;;;40.00;55.60;;;;;;5075502;28;20032;-69
2023/08/20 09:38:22;;;;;;;6.22;5.82;;;40.00;54.70;;;;;;5075433;28;20054;-69
2023/08/20 09:40:52;;;;;;;5.97;5.57;;;39.90;54.80;;;;;;5076909;28;20017;-69
2023/08/20 09:43:18;;;;;;;6.18;5.68;;;39.90;54.20;;;;;;5076570;28;20469;-70
2023/08/20 09:45:46;;;;;;;8.90;6.15;;;39.60;53.90;;;;;;5076585;28;20519;-70
2023/08/20 09:48:17;;;;;;;;;;;39.90;54.30;;;;;;5075838;28;20434;-70
2023/08/20 09:50:46;;;;;;;5.88;5.38;;;40.30;53.80;;;;;;5057465;28;19940;-69
2023/08/20 09:53:17;;;;;;;5.50;5.10;;;40.40;52.90;;;;;;5056464;28;20033;-68
2023/08/20 09:55:44;;;;;;;5.70;5.30;;;40.20;52.30;;;;;;5056751;28;20029;-69
2023/08/20 09:58:11;;;;;;;6.32;5.72;;;40.10;52.20;;;;;;5056696;28;20037;-69
2023/08/20 10:00:37;;;;;;;6.05;5.55;;;40.00;52.10;;;;;;5056636;28;20082;-69
2023/08/20 10:03:03;;;;;;;6.00;5.45;;;40.20;51.70;;;;;;5055347;28;20037;-69
2023/08/20 10:05:29;;;;;;;5.55;5.15;;;40.00;51.20;;;;;;5056628;28;20037;-69
2023/08/20 10:07:57;;;;;;;5.97;5.57;;;40.00;51.70;;;;;;5056458;28;20036;-68
2023/08/20 10:10:24;;;;;;;5.20;4.90;;;40.20;50.70;;;;;;5056075;28;20116;-70
2023/08/20 10:12:50;;;;;;;6.70;5.40;;;40.40;50.20;;;;;;5055215;28;20469;-70
2023/08/20 10:15:16;;;;;;;5.50;5.05;;;40.20;50.00;;;;;;5056777;28;20533;-70
2023/08/20 10:17:44;;;;;;;5.70;5.20;;;40.30;49.60;;;;;;5059226;28;20064;-70
2023/08/20 10:20:12;;;;;;;5.97;4.85;;;40.00;48.60;;;;;;5061337;28;20017;-70
2023/08/20 10:22:43;;;;;;;5.78;5.15;;;39.80;49.60;;;;;;5061098;28;20033;-71
2023/08/20 10:25:27;;;;;;;5.45;4.95;;;39.80;50.10;;;;;;5060268;28;20470;-67
2023/08/20 10:27:53;;;;;;;5.35;4.90;;;39.70;50.10;;;;;;5057770;28;20028;-68
2023/08/20 10:30:25;;;;;;;5.40;4.90;;;40.00;49.70;;;;;;5056418;28;20057;-68
2023/08/20 10:32:56;;;;;;;7.03;5.22;;;40.60;49.40;;;;;;5055838;28;20032;-72
2023/08/20 10:35:46;;;;;;;9.68;4.85;;;40.90;47.70;;;;;;5056011;28;20028;-72
2023/08/20 10:38:13;;;;;;;4.95;4.30;;;41.10;47.00;;;;;;5055717;28;20210;-71
2023/08/20 10:40:51;;;;;;;;;;;40.80;45.90;;;;;;5055888;28;20379;-72
2023/08/20 10:43:25;;;;;;;4.72;4.32;;;41.00;49.00;;;;;;5055805;28;19905;-73
2023/08/20 10:46:17;;;;;;;13.43;4.43;;;41.40;45.80;;;;;;5054612;28;20025;-73
2023/08/20 10:48:52;;;;;;;8.88;4.57;;;42.20;46.20;;;;;;5057878;28;20466;-72
2023/08/20 10:51:24;;;;;;;4.32;4.03;;;42.20;45.00;;;;;;5077536;28;20049;-73
2023/08/20 10:54:04;;;;;;;5.05;3.88;;;41.70;45.50;;;;;;5095324;28;20054;-73
2023/08/20 10:56:42;;;;;;;6.35;4.57;;;41.80;45.30;;;;;;5078431;28;20028;-73
2023/08/20 10:59:13;;;;;;;4.78;4.38;;;41.40;44.90;;;;;;5077495;28;20051;-73
2023/08/20 11:01:38;;;;;;;4.40;4.10;;;40.80;46.50;;;;;;5095439;28;20016;-73
2023/08/20 11:04:07;;;;;;;4.22;4.03;;;41.70;46.20;;;;;;5095306;28;20146;-75
2023/08/20 11:06:33;;;;;;;4.78;4.38;;;42.20;44.80;;;;;;5095427;28;20028;-76
2023/08/20 11:08:59;;;;;;;5.03;4.38;;;42.00;44.30;;;;;;5077222;28;20024;-75
2023/08/20 11:11:25;;;;;;;3.95;3.75;;;42.20;46.20;;;;;;5077255;28;20499;-76
2023/08/20 11:13:51;;;;;;;5.05;4.68;;;42.90;45.00;;;;;;5094088;28;20129;-75
2023/08/20 11:16:17;;;;;;;4.32;4.00;;;42.90;43.50;;;;;;5077373;28;20128;-76
2023/08/20 11:18:43;;;;;;;5.43;4.05;;;42.60;44.00;;;;;;5095117;28;20157;-75
2023/08/20 11:21:09;;;;;;;4.35;4.10;;;42.60;43.70;;;;;;5077047;28;20096;-76
2023/08/20 11:23:35;;;;;;;3.90;3.60;;;42.50;43.40;;;;;;5077634;28;20031;-76
2023/08/20 11:26:02;;;;;;;4.32;3.88;;;42.80;43.00;;;;;;5095040;28;20089;-75
2023/08/20 11:28:28;;;;;;;3.85;3.60;;;43.00;42.20;;;;;;5076973;28;20031;-76
2023/08/20 11:30:55;;;;;;;4.13;3.58;;;43.00;41.50;;;;;;5095145;28;20024;-75
2023/08/20 11:33:22;;;;;;;3.97;3.75;;;42.40;40.80;;;;;;5095289;28;20027;-80
2023/08/20 11:35:48;;;;;;;4.85;3.92;;;42.20;41.00;;;;;;5095153;28;20434;-74
2023/08/20 11:38:13;;;;;;;4.57;4.22;;;42.60;42.20;;;;;;5094915;28;20020;-75
2023/08/20 11:40:39;;;;;;;4.15;3.65;;;42.90;41.90;;;;;;5094631;28;20031;-75
2023/08/20 11:43:06;;;;;;;3.92;3.63;;;42.90;41.90;;;;;;5094320;28;20028;-75
2023/08/20 11:45:32;;;;;;;4.13;3.92;;;42.40;41.80;;;;;;5094928;28;20020;-74
2023/08/20 11:47:59;;;;;;;4.05;3.75;;;42.90;42.10;;;;;;5094552;28;20020;-75
2023/08/20 11:50:24;;;;;;;4.07;3.88;;;43.40;41.30;;;;;;5095207;28;20181;-75
2023/08/20 11:52:55;;;;;;;4.68;4.28;;;43.70;41.30;;;;;;5094574;28;20114;-75
2023/08/20 11:55:24;;;;;;;4.40;4.10;;;43.80;40.90;;;;;;5095151;28;20170;-75
2023/08/20 11:57:53;;;;;;;4.20;3.90;;;42.80;41.00;;;;;;5094627;28;20028;-75
2023/08/20 12:00:31;;;;;;;4.30;3.90;;;42.90;41.30;;;;;;5094827;28;20446;-75
2023/08/20 12:02:57;;;;;;;3.92;3.63;;;43.00;41.40;;;;;;5076322;28;20076;-75
2023/08/20 12:05:30;;;;;;;3.80;3.60;;;43.20;40.60;;;;;;5094419;28;20027;-74
2023/08/20 12:08:01;;;;;;;4.13;3.72;;;43.20;40.50;;;;;;5094808;28;20031;-75
2023/08/20 12:10:29;;;;;;;4.47;3.90;;;43.40;40.20;;;;;;5094399;28;20032;-76
2023/08/20 12:12:56;;;;;;;4.35;4.00;;;43.30;39.70;;;;;;5094322;28;20111;-75
2023/08/20 12:15:23;;;;;;;4.18;3.78;;;43.00;40.00;;;;;;5094185;28;20036;-75
2023/08/20 12:17:59;;;;;;;4.97;4.07;;;43.40;39.30;;;;;;5094068;28;20020;-75
2023/08/20 12:20:27;;;;;;;3.93;3.67;;;43.80;39.10;;;;;;5094308;28;20266;-74
2023/08/20 12:22:53;;;;;;;3.92;3.63;;;42.90;38.80;;;;;;5094132;28;20024;-75
2023/08/20 12:25:19;;;;;;;4.75;4.00;;;43.40;39.60;;;;;;5094437;28;20046;-74
2023/08/20 12:27:44;;;;;;;3.70;3.40;;;43.80;39.10;;;;;;5094484;28;20070;-75
2023/08/20 12:30:11;;;;;;;3.40;3.20;;;43.60;39.00;;;;;;5094622;28;20024;-75
2023/08/20 12:32:36;;;;;;;4.07;3.72;;;43.50;38.90;;;;;;5076198;28;20097;-75
2023/08/20 12:35:02;;;;;;;3.97;3.70;;;43.40;38.70;;;;;;5093862;28;20473;-75